Airfield :
LOGIN :

Register | Disclaimer

   EN    FR    IT 

 










Legend :    VFR   Marginal VFR   IFR   Intensive IFR   Very Intensive IFR
Visi :
Ceiling :
>= 8 km
>= 3000ft
5 to 8 km
1000 to 3000 ft
1500m to 5 km
500 to 1000 ft
800 to 1500m
200 to 500 ft
< 800m
< 200 ft
Symbols :   Thunderstorms  Fog  Heavy snow  Heavy precipitations  Wind > 20 kt
SIGMETs :     Misc.  Thunderstorms  Icing  Turbulence  Mountain Waves  Volcanic Ashes






- Airport Elevation : 510 ft


LJCE - Cerklje

CURRENT METAR :
  • 280630Z VRB01KT 5000 BR OVC007 01/01 Q1023 RMK GRN

EXPIRED METARs :
  • 280600Z 22001KT 4000 BR OVC007 01/01 Q1023 RMK GRN
  • 280530Z AUTO 00000KT 9999 SCT004/// OVC034/// 01/00 Q1023
  • 280500Z AUTO VRB01KT 8000 FEW009/// SCT016/// OVC041/// 01/00 Q1022

TAF TAF LJCE
Valid from the 28 at 06:00 until the 28 at 15:00 UTC


280500Z 2806/2815 VRB02KT 9999 OVC035



MET'MAP, your aeronautical weather chart ! - Copyright ORBIFLY December 2007 - Disclaimer

ORBIFLY MET'MAP TEAM :

Programming & Development : Alexandra Zaïnal
Original concept : Baudouin d'Aumeries
Technical & hardware support : Manuel Goepfert
Assistance : Marc-Olivier Méhu




SOURCES & CREDITS :

   NOAA